Home > Products > Valid Products > TAF

000
FTUS44 KJAN 050500
TAFMEI
TAF
KMEI 050523Z 0506/0606 01012KT P6SM VCSH BKN008 OVC015
     FM050800 35015KT 5SM -RA BR OVC007
     FM051700 36020G26KT 6SM -FZRA BR BKN007 OVC015
     FM052100 35015G22KT P6SM OVC015=



000
FTUS44 KJAN 050500
TAFJAN
TAF
KJAN 050523Z 0506/0606 35012G18KT P6SM OVC007
     FM050800 35015G20KT 5SM -RA BR OVC007
     FM051300 36020G26KT 4SM -FZRA BR BKN007 OVC015
     FM051800 36018G22KT 6SM -FZRA BR OVC007
     FM052100 35018KT P6SM OVC015=



000
FTUS44 KJAN 050500
TAFGLH
TAF
KGLH 050523Z 0506/0606 01022G28KT 4SM -FZRAPL BR SCT008 OVC012
     FM051600 01024G30KT P6SM -SN BKN010 OVC025
     FM051800 01023G28KT P6SM BKN025 OVC200
     FM052000 36018KT P6SM OVC035=



000
FTUS44 KJAN 050500
TAFHBG
TAF
KHBG 050523Z 0506/0606 19011KT P6SM VCSH BKN015
     FM050700 31013G18KT P6SM VCSH SCT008 BKN015
     FM050900 36013KT 5SM -RA BR OVC007
     FM051400 36020G25KT 5SM -RA BR BKN010 OVC020
     FM052000 36015G20KT P6SM OVC007
     FM060000 35012KT P6SM OVC015
     FM060300 36012KT P6SM OVC025=



000
FTUS44 KJAN 050500
TAFGWO
TAF
KGWO 050523Z 0506/0606 02020G26KT P6SM OVC013
     FM050700 02020G28KT 4SM -FZRA BR OVC008
     FM051100 01022G28KT 5SM -FZRAPL OVC006
     FM051600 01020G27KT 6SM -SN BKN010 OVC025
     FM052000 01017KT P6SM OVC035=



000
FTUS44 KJAN 050300 AAB
TAFGWO
TAF AMD
KGWO 050309Z 0503/0524 01013G23KT P6SM OVC010
     FM050600 01023G30KT 4SM -FZRA BR OVC010
     FM051100 01025G33KT 5SM -FZRAPL OVC007
     FM051600 01020G27KT 6SM -SN BKN010 OVC025
     FM051800 01017KT P6SM OVC015=



000
FTUS44 KJAN 050300 AAA
TAFGWO
TAF AMD
KGWO 050308Z 0503/0524 01012KT P6SM OVC009
     FM050600 01023G30KT 4SM -FZRA BR OVC010
     FM051100 01025G33KT 5SM -FZRAPL OVC007
     FM051600 01020G27KT 6SM -SN BKN010 OVC025
     FM051800 01017KT P6SM OVC015=



000
FTUS44 KJAN 050300 AAA
TAFGWO
TAF AMD
KGWO 050308Z 0503/0524 01012KT P6SM OVC009
     FM050600 01023G30KT 4SM -FZRA BR OVC010
     FM051100 01025G33KT 5SM -FZRAPL OVC007
     FM051600 01020G27KT 6SM -SN BKN010 OVC025
     FM051800 01017KT P6SM OVC015=



000
FTUS44 KJAN 042300
TAFGLH
TAF
KGLH 042327Z 0500/0524 03018G31KT P6SM VCSH OVC011
     FM050200 36029G35KT 5SM -RA BR BKN010 OVC020
     FM050400 01026G33KT 4SM -FZRA BR OVC010
     FM051000 01025G30KT 5SM -FZRAPL OVC007
     FM051600 01024G30KT 6SM -SN BKN010 OVC025
     FM051800 01023G28KT P6SM BKN025 OVC200=



000
FTUS44 KJAN 042300
TAFMEI
TAF
KMEI 042327Z 0500/0524 20011KT P6SM VCSH FEW050 SCT100
     FM050300 19007KT P6SM VCSH SCT020 BKN025
     FM050500 34015G20KT 5SM -RA BR OVC007
     FM051700 36020G26KT 6SM -FZRA BR BKN007 OVC015
     FM052100 35017KT P6SM OVC007=



000
FTUS44 KJAN 042300
TAFGWO
TAF
KGWO 042327Z 0500/0524 35016G20KT P6SM VCSH OVC010
     FM050200 36022G27KT 5SM -RA BR BKN010 OVC020
     FM050500 01023G30KT 4SM -FZRA BR OVC010
     FM051100 01025G33KT 5SM -FZRAPL OVC007
     FM051600 01020G27KT 6SM -SN BKN010 OVC025
     FM051800 01017KT P6SM OVC015=



000
FTUS44 KJAN 042300
TAFJAN
TAF
KJAN 042327Z 0500/0524 20012KT P6SM VCSH SCT060 BKN100
     FM050100 36010G20KT P6SM VCSH BKN070
     FM050300 33010G20KT P6SM VCSH BKN010 OVC020
     FM050700 35015G20KT 5SM -RA BR OVC007
     FM051300 36020G26KT 4SM -FZRA BR BKN007 OVC015
     FM051800 36014KT 6SM -FZRA BR OVC007
     FM052100 35018KT P6SM OVC015=



000
FTUS44 KJAN 042300
TAFHBG
TAF
KHBG 042327Z 0500/0524 17011KT P6SM VCSH FEW029
     FM050800 31013G18KT 4SM -RA BR OVC007
     FM051400 36020G25KT 5SM -RA BR BKN010 OVC020
     FM052100 36012KT P6SM OVC007=



000
FTUS44 KJAN 042100 AAC
TAFGWO
TAF AMD
KGWO 042115Z 0421/0518 36012G20KT P6SM BKN010 BKN045 OVC050
     FM050100 36022G27KT 5SM -RA BR BKN010 OVC020
     FM050500 01023G30KT 4SM -FZRA BR OVC010
     FM051100 01025G33KT 5SM -FZRAPL OVC007
     FM051600 01020G27KT 4SM -SN BKN010 OVC025=



000
FTUS44 KJAN 042000 AAB
TAFGWO
TAF AMD
KGWO 042046Z 0421/0518 32007G18KT P6SM BKN045 OVC050
     FM050100 36022G27KT 5SM -RA BR BKN010 OVC020
     FM050500 01023G30KT 4SM -FZRA BR OVC010
     FM051100 01025G33KT 5SM -FZRAPL OVC007
     FM051600 01020G27KT 4SM -SN BKN010 OVC025=



000
FTUS44 KJAN 042000 AAB
TAFGWO
TAF AMD
KGWO 042046Z 0421/0518 32007G18KT P6SM BKN045 OVC050
     FM050100 36022G27KT 5SM -RA BR BKN010 OVC020
     FM050500 01023G30KT 4SM -FZRA BR OVC010
     FM051100 01025G33KT 5SM -FZRAPL OVC007
     FM051600 01020G27KT 4SM -SN BKN010 OVC025=



000
FTUS44 KJAN 041800 AAA
TAFJAN
TAF AMD
KJAN 041835Z 0419/0518 19014G20KT P6SM BKN030
     FM042100 19015G20KT P6SM VCSH BKN020
     FM050000 31013G18KT 4SM RA BR BKN010 OVC020
     FM050700 35015G20KT 5SM -RA BR OVC007
     FM051300 36020G26KT 4SM -FZRA BR BKN007 OVC015=



000
FTUS44 KJAN 041800 AAA
TAFJAN
TAF AMD
KJAN 041835Z 0419/0518 19014G20KT P6SM BKN030
     FM042100 19015G20KT P6SM VCSH BKN020
     FM050000 31013G18KT 4SM RA BR BKN010 OVC020
     FM050700 35015G20KT 5SM -RA BR OVC007
     FM051300 36020G26KT 4SM -FZRA BR BKN007 OVC015=



000
FTUS44 KJAN 041800 AAA
TAFGWO
TAF AMD
KGWO 041817Z 0418/0518 22015KT P6SM VCSH SCT020 BKN080
     FM042000 35018G23KT 3SM RA BR OVC007
     FM050100 36022G27KT 5SM -RA BR BKN010 OVC020
     FM050500 01023G30KT 4SM -FZRA BR OVC010
     FM051100 01025G33KT 5SM -FZRAPL OVC007
     FM051600 01020G27KT 4SM -SN BKN010 OVC025=



000
FTUS44 KJAN 041800 AAA
TAFGWO
TAF AMD
KGWO 041817Z 0418/0518 22015KT P6SM VCSH SCT020 BKN080
     FM042000 35018G23KT 3SM RA BR OVC007
     FM050100 36022G27KT 5SM -RA BR BKN010 OVC020
     FM050500 01023G30KT 4SM -FZRA BR OVC010
     FM051100 01025G33KT 5SM -FZRAPL OVC007
     FM051600 01020G27KT 4SM -SN BKN010 OVC025=



000
FTUS44 KJAN 041700 RRA
TAFGWO
TAF
KGWO 041743Z 0418/0518 19012KT P6SM VCSH SCT020 BKN080
     FM042100 35017G22KT 3SM RA BR OVC007
     FM050100 36022G27KT 5SM -RA BR BKN010 OVC020
     FM050500 01023G30KT 4SM -FZRA BR OVC010
     FM051100 01025G33KT 5SM -FZRAPL OVC007
     FM051600 01020G27KT 4SM -SN BKN010 OVC025=



000
FTUS44 KJAN 041700 RRA
TAFMEI
TAF
KMEI 041743Z 0418/0518 19013G19KT P6SM VCSH BKN020 OVC030
     FM042300 20011KT 4SM RA BR SCT020 BKN025
     FM050600 34015G20KT 5SM -RA BR OVC007
     FM051600 36020G26KT 4SM -FZRA BR BKN007 OVC015=



000
FTUS44 KJAN 041700 RRA
TAFGLH
TAF
KGLH 041743Z 0418/0518 20012KT P6SM VCSH SCT018 OVC090
     FM042000 35020G27KT 3SM RA BR OVC015
     FM050000 36028G35KT 5SM -RA BR BKN010 OVC020
     FM050400 01026G33KT 4SM -FZRA BR OVC010
     FM051000 01025G30KT 5SM -FZRAPL OVC007
     FM051600 01024G30KT 4SM -SN BKN010 OVC025=



000
FTUS44 KJAN 041700 RRA
TAFJAN
TAF
KJAN 041743Z 0418/0518 19013G18KT P6SM BKN025
     FM042100 19015G20KT P6SM VCSH BKN020
     FM050100 31013G18KT 4SM RA BR BKN010 OVC020
     FM050700 35015G20KT 5SM -RA BR OVC007
     FM051300 36020G26KT 4SM -FZRA BR BKN007 OVC015=



000
FTUS44 KJAN 041700 RRA
TAFMEI
TAF
KMEI 041743Z 0418/0518 19013G19KT P6SM VCSH BKN020 OVC030
     FM042300 20011KT 4SM RA BR SCT020 BKN025
     FM050600 34015G20KT 5SM -RA BR OVC007
     FM051600 36020G26KT 4SM -FZRA BR BKN007 OVC015=



000
FTUS44 KJAN 041700 RRA
TAFHBG
TAF
KHBG 041743Z 0418/0518 21012KT P6SM VCSH SCT020 BKN040
     FM050000 20011KT 4SM RA BR VCTS SCT020 OVC030CB
     FM050800 31013G18KT 4SM -RA BR OVC007
     FM051400 36020G25KT 5SM -RA BR BKN010 OVC020=



000
FTUS44 KJAN 041700 RRA
TAFGWO
TAF
KGWO 041743Z 0418/0518 19012KT P6SM VCSH SCT020 BKN080
     FM042100 35017G22KT 3SM RA BR OVC007
     FM050100 36022G27KT 5SM -RA BR BKN010 OVC020
     FM050500 01023G30KT 4SM -FZRA BR OVC010
     FM051100 01025G33KT 5SM -FZRAPL OVC007
     FM051600 01020G27KT 4SM -SN BKN010 OVC025=



000
FTUS44 KJAN 041700 RRA
TAFGLH
TAF
KGLH 041743Z 0418/0518 20012KT P6SM VCSH SCT018 OVC090
     FM042000 35020G27KT 3SM RA BR OVC015
     FM050000 36028G35KT 5SM -RA BR BKN010 OVC020
     FM050400 01026G33KT 4SM -FZRA BR OVC010
     FM051000 01025G30KT 5SM -FZRAPL OVC007
     FM051600 01024G30KT 4SM -SN BKN010 OVC025=



000
FTUS44 KJAN 041700 RRA
TAFJAN
TAF
KJAN 041743Z 0418/0518 19013G18KT P6SM BKN025
     FM042100 19015G20KT P6SM VCSH BKN020
     FM050100 31013G18KT 4SM RA BR BKN010 OVC020
     FM050700 35015G20KT 5SM -RA BR OVC007
     FM051300 36020G26KT 4SM -FZRA BR BKN007 OVC015=



000
FTUS44 KJAN 041700 RRA
TAFHBG
TAF
KHBG 041743Z 0418/0518 21012KT P6SM VCSH SCT020 BKN040
     FM050000 20011KT 4SM RA BR VCTS SCT020 OVC030CB
     FM050800 31013G18KT 4SM -RA BR OVC007
     FM051400 36020G25KT 5SM -RA BR BKN010 OVC020=



000
FTUS44 KJAN 041600 AAB
TAFGLH
TAF AMD
KGLH 041618Z 0416/0512 20012KT 6SM BR BKN010 OVC020
     FM041800 21015G20KT P6SM VCSH OVC010
     FM042000 34020G28KT 3SM RA BR OVC007
     FM050300 01027G34KT 5SM -FZRA BR OVC010=



000
FTUS44 KJAN 041600 AAB
TAFJAN
TAF AMD
KJAN 041615Z 0416/0512 17013G18KT P6SM SCT020
     FM042000 19015G20KT P6SM VCSH OVC015
     FM050000 33010KT 6SM RA BR OVC007=



000
FTUS44 KJAN 041600 AAB
TAFJAN
TAF AMD
KJAN 041615Z 0416/0512 17013G18KT P6SM SCT020
     FM042000 19015G20KT P6SM VCSH OVC015
     FM050000 33010KT 6SM RA BR OVC007=



000
FTUS44 KJAN 041600 AAA
TAFMEI
TAF AMD
KMEI 041613Z 0416/0512 19010KT P6SM BKN013 OVC070
     FM042100 20012KT P6SM OVC040
     FM050100 19008KT P6SM OVC015
     FM050300 35009KT 6SM BR VCSH OVC007=



000
FTUS44 KJAN 041600 AAA
TAFMEI
TAF AMD
KMEI 041613Z 0416/0512 19010KT P6SM BKN013 OVC070
     FM042100 20012KT P6SM OVC040
     FM050100 19008KT P6SM OVC015
     FM050300 35009KT 6SM BR VCSH OVC007=



000
FTUS44 KJAN 041500 AAA
TAFGWO
TAF AMD
KGWO 041534Z 0416/0512 19014G18KT P6SM BKN016 OVC045
     FM041800 22015G21KT P6SM BKN007 OVC015
     FM042000 36016G24KT 4SM RA BR OVC007
     FM050500 01019G27KT 6SM -FZRA BR OVC010=



000
FTUS44 KJAN 041300 AAA
TAFHBG
TAF AMD
KHBG 041335Z 0414/0512 17006KT P6SM VCSH BKN013 OVC021
     FM041600 20012G18KT P6SM OVC040
     FM050200 18006KT P6SM OVC020
     FM050600 21006KT 6SM BR OVC007
     FM050900 34011KT 6SM BR VCSH OVC003=



000
FTUS44 KJAN 041300 AAA
TAFHBG
TAF AMD
KHBG 041335Z 0414/0512 17006KT P6SM VCSH BKN013 OVC021
     FM041600 20012G18KT P6SM OVC040
     FM050200 18006KT P6SM OVC020
     FM050600 21006KT 6SM BR OVC007
     FM050900 34011KT 6SM BR VCSH OVC003=



000
FTUS44 KJAN 041300 AAA
TAFJAN
TAF AMD
KJAN 041326Z 0413/0512 17010KT P6SM FEW008 OVC080
     FM041800 19012G18KT P6SM VCSH OVC015
     FM050000 33010KT 6SM RA BR OVC007=



000
FTUS44 KJAN 041300 AAA
TAFGLH
TAF AMD
KGLH 041325Z 0413/0512 20010KT 1SM +RA BR OVC006
     FM041600 21015G20KT 5SM BR VCSH OVC007
     FM041800 34020G28KT 3SM RA BR OVC007
     FM050300 01027G34KT 5SM -FZRA BR OVC010=



000
FTUS44 KJAN 041100 RRA
TAFHBG
TAF
KHBG 041147Z 0412/0512 17003KT P6SM OVC020
     FM041400 18009KT P6SM OVC015
     FM042000 20012G18KT P6SM OVC040
     FM050200 18006KT P6SM OVC020
     FM050600 21006KT 6SM BR OVC007
     FM050900 34011KT 6SM BR VCSH OVC003=



000
FTUS44 KJAN 041100 RRA
TAFMEI
TAF
KMEI 041147Z 0412/0512 19004KT P6SM VCSH OVC006
     FM041700 20013G19KT P6SM OVC025
     FM042100 20012KT P6SM OVC040
     FM050100 19008KT P6SM OVC015
     FM050300 35009KT 6SM BR VCSH OVC007=



000
FTUS44 KJAN 041100 RRA
TAFGLH
TAF
KGLH 041141Z 0412/0512 20011KT 6SM BR OVC007
     FM041500 21015G20KT 3SM BR OVC007
     FM041800 34020G28KT 3SM RA BR OVC007
     FM050300 01027G34KT 5SM -FZRA BR OVC010=



000
FTUS44 KJAN 041100 RRA
TAFJAN
TAF
KJAN 041141Z 0412/0512 18010G17KT 6SM BR OVC007
     FM041800 19012G18KT 6SM BR OVC015
     FM050000 33010KT 6SM RA BR OVC007=



000
FTUS44 KJAN 041100 RRA
TAFGLH
TAF
KGLH 041141Z 0412/0512 20011KT 6SM BR OVC007
     FM041500 21015G20KT 3SM BR OVC007
     FM041800 34020G28KT 3SM RA BR OVC007
     FM050300 01027G34KT 5SM -FZRA BR OVC010=



000
FTUS44 KJAN 041100 RRA
TAFGWO
TAF
KGWO 041141Z 0412/0512 20014KT P6SM OVC014
     FM041500 22015G21KT 3SM BR OVC007
     FM042000 36016G24KT 4SM RA BR OVC007
     FM050500 01019G27KT 6SM -FZRA BR OVC010=



000
FTUS44 KJAN 041100 RRA
TAFJAN
TAF
KJAN 041141Z 0412/0512 18010G17KT 6SM BR OVC007
     FM041800 19012G18KT 6SM BR OVC015
     FM050000 33010KT 6SM RA BR OVC007=



000
FTUS44 KJAN 041100 RRA
TAFGWO
TAF
KGWO 041141Z 0412/0512 20014KT P6SM OVC014
     FM041500 22015G21KT 3SM BR OVC007
     FM042000 36016G24KT 4SM RA BR OVC007
     FM050500 01019G27KT 6SM -FZRA BR OVC010=



000
FTUS44 KJAN 041000 AAA
TAFHBG
TAF AMD
KHBG 041003Z 0410/0506 18002KT 6SM BR OVC010
     FM041100 17003KT 4SM BR OVC003
     FM041500 19007KT 4SM BR OVC007
     FM041700 20009KT P6SM OVC015
     FM042100 18006KT P6SM VCTS OVC035CB=



000
FTUS44 KJAN 041000 AAA
TAFHBG
TAF AMD
KHBG 041003Z 0410/0506 18002KT 6SM BR OVC010
     FM041100 17003KT 4SM BR OVC003
     FM041500 19007KT 4SM BR OVC007
     FM041700 20009KT P6SM OVC015
     FM042100 18006KT P6SM VCTS OVC035CB=



000
FTUS44 KJAN 041000 AAA
TAFMEI
TAF AMD
KMEI 041002Z 0410/0506 20005KT 6SM BR OVC006
     FM041100 19004KT 3SM BR OVC003
     FM041600 20009KT 6SM BR OVC015
     FM041900 20011G17KT P6SM OVC025
     FM042200 20008KT P6SM VCTS SCT030CB BKN050
     FM050300 24005KT P6SM VCSH OVC025=



000
FTUS44 KJAN 041000 AAA
TAFMEI
TAF AMD
KMEI 041002Z 0410/0506 20005KT 6SM BR OVC006
     FM041100 19004KT 3SM BR OVC003
     FM041600 20009KT 6SM BR OVC015
     FM041900 20011G17KT P6SM OVC025
     FM042200 20008KT P6SM VCTS SCT030CB BKN050
     FM050300 24005KT P6SM VCSH OVC025=



000
FTUS44 KJAN 041000 AAA
TAFJAN
TAF AMD
KJAN 041001Z 0410/0506 18005KT 6SM BR OVC010
     FM041100 18004KT 3SM BR OVC005
     FM041600 19009KT 4SM BR OVC007
     FM041700 20010G16KT P6SM OVC015
     FM042300 29009KT 4SM -RA BR OVC007=



000
FTUS44 KJAN 041000 AAA
TAFJAN
TAF AMD
KJAN 041001Z 0410/0506 18005KT 6SM BR OVC010
     FM041100 18004KT 3SM BR OVC005
     FM041600 19009KT 4SM BR OVC007
     FM041700 20010G16KT P6SM OVC015
     FM042300 29009KT 4SM -RA BR OVC007=



000
FTUS44 KJAN 040500
TAFHBG
TAF
KHBG 040522Z 0406/0506 17006KT 6SM BR OVC015
     FM040700 17005KT 4SM BR OVC007
     FM040800 18004KT 2SM BR OVC003
     FM041000 18002KT 1/4SM FG OVC001
     FM041300 17003KT 1/2SM FG OVC003
     FM041500 19007KT 4SM BR OVC007
     FM041700 20009KT P6SM OVC015
     FM042100 18006KT P6SM VCTS OVC035CB=



000
FTUS44 KJAN 040500
TAFGLH
TAF
KGLH 040522Z 0406/0506 19010KT 4SM BR OVC007
     FM041100 20009KT 2SM BR OVC003
     FM041400 20010KT 4SM -RA BR OVC007
     FM041600 29013G20KT 1 1/2SM -RA BR OVC003
     FM042200 01022KT 2SM -RA BR OVC007
     FM050000 36025G31KT 4SM -RA BR OVC007
     FM050200 36028G34KT 4SM -RA BR OVC015=



000
FTUS44 KJAN 040500
TAFMEI
TAF
KMEI 040522Z 0406/0506 18007KT 6SM BR OVC015
     FM040700 19005KT 4SM BR OVC007
     FM040900 20005KT 2SM BR OVC003
     FM041100 19004KT 1/2SM FG OVC001
     FM041300 19005KT 1/4SM FG OVC001
     FM041400 19008KT 3SM BR OVC005
     FM041600 20009KT 6SM BR OVC015
     FM041900 20011G17KT P6SM OVC025
     FM042200 20008KT P6SM VCTS SCT030CB BKN050
     FM050300 24005KT P6SM VCSH OVC025=



000
FTUS44 KJAN 040500
TAFGWO
TAF
KGWO 040522Z 0406/0506 19012KT 6SM BR OVC015
     FM041000 19007KT 4SM BR OVC007
     FM041600 22011KT 2SM -RA BR OVC007
     FM041800 36013G19KT 1 1/2SM -RA BR OVC003
     FM042100 01012G18KT 1 1/2SM -RA BR OVC007
     FM050000 36014G20KT 4SM -RA BR OVC007
     FM050200 36015G22KT 4SM -RA BR OVC015=



000
FTUS44 KJAN 040500
TAFJAN
TAF
KJAN 040522Z 0406/0506 15010KT 6SM BR SCT008 BKN040
     FM040700 17005KT 4SM BR OVC007
     FM041000 18005KT 2SM BR OVC003
     FM041100 18004KT 1/4SM FG OVC001
     FM041500 19008KT 2SM BR OVC003
     FM041600 19009KT 4SM BR OVC007
     FM041700 20010G16KT P6SM OVC015
     FM042300 29009KT 4SM -RA BR OVC007=



000
FTUS44 KJAN 040200 AAB
TAFJAN
TAF AMD
KJAN 040244Z 0403/0424 15010KT 6SM BR SCT008 BKN040
     FM040700 17005KT 4SM BR OVC007
     FM041000 18005KT 2SM BR OVC003
     FM041500 19008KT 4SM BR OVC007
     FM041700 20010G16KT P6SM OVC015
     FM042300 29009KT 4SM -RA BR OVC007=



000
FTUS44 KJAN 040200 AAB
TAFJAN
TAF AMD
KJAN 040244Z 0403/0424 15010KT 6SM BR SCT008 BKN040
     FM040700 17005KT 4SM BR OVC007
     FM041000 18005KT 2SM BR OVC003
     FM041500 19008KT 4SM BR OVC007
     FM041700 20010G16KT P6SM OVC015
     FM042300 29009KT 4SM -RA BR OVC007=



000
FTUS44 KJAN 040100 AAA
TAFJAN
TAF AMD
KJAN 040139Z 0402/0424 19007KT 5SM -DZ BR BKN009
     FM040700 17005KT 4SM BR OVC007
     FM041000 18005KT 2SM BR OVC003
     FM041500 19008KT 4SM BR OVC007
     FM041700 20010G16KT P6SM OVC015
     FM042300 29009KT 4SM -RA BR OVC007=



000
FTUS44 KJAN 040100 AAA
TAFGLH
TAF AMD
KGLH 040137Z 0402/0424 17006KT 3SM BR SCT007
     FM040400 19010KT 3SM BR OVC007
     FM041100 20009KT 2SM BR OVC003
     FM041400 20010KT 4SM -RA BR OVC007
     FM041600 29013G20KT 1 1/2SM -RA BR OVC003
     FM042200 01022KT 2SM -RA BR OVC007=



000
FTUS44 KJAN 040100 AAA
TAFGLH
TAF AMD
KGLH 040137Z 0402/0424 17006KT 3SM BR SCT007
     FM040400 19010KT 3SM BR OVC007
     FM041100 20009KT 2SM BR OVC003
     FM041400 20010KT 4SM -RA BR OVC007
     FM041600 29013G20KT 1 1/2SM -RA BR OVC003
     FM042200 01022KT 2SM -RA BR OVC007=



000
FTUS44 KJAN 032300
TAFMEI
TAF
KMEI 032324Z 0400/0424 17006KT P6SM SCT025 OVC060
     FM040300 18007KT P6SM OVC015
     FM040500 18007KT 6SM BR OVC007
     FM040700 19005KT 4SM BR OVC007
     FM040900 20005KT 2SM BR OVC003
     FM041100 19004KT 1/2SM FG OVC001
     FM041300 19005KT 1/4SM FG OVC001
     FM041400 19008KT 3SM BR OVC005
     FM041600 20009KT 6SM BR OVC015
     FM041900 20011G17KT P6SM OVC025
     FM042200 20008KT P6SM VCTS SCT030CB BKN050=



000
FTUS44 KJAN 032300
TAFGWO
TAF
KGWO 032324Z 0400/0424 18006KT P6SM VCSH BKN030
     FM040300 17009KT P6SM VCSH OVC015
     FM040600 19012KT P6SM OVC007
     FM041000 19007KT 6SM BR OVC007
     FM041200 20008KT 4SM BR OVC007
     FM041800 28011KT 2SM -RA BR OVC007
     FM042000 36013G19KT 1 1/2SM -RA BR OVC003=



000
FTUS44 KJAN 032300
TAFGLH
TAF
KGLH 032324Z 0400/0424 18006KT P6SM VCSH BKN025
     FM040200 17006KT 6SM BR VCSH OVC007
     FM040700 19010KT 4SM BR OVC003
     FM041100 20009KT 2SM BR OVC003
     FM041400 20010KT 4SM -RA BR OVC007
     FM041600 29013G20KT 1 1/2SM -RA BR OVC003
     FM042200 01022KT 2SM -RA BR OVC007=



000
FTUS44 KJAN 032300
TAFHBG
TAF
KHBG 032324Z 0400/0424 17009KT P6SM VCSH BKN025
     FM040300 16007KT 6SM BR VCSH OVC015
     FM040500 17005KT 4SM BR OVC007
     FM040700 18004KT 2SM BR OVC003
     FM041000 18002KT 1/4SM FG OVC001
     FM041500 17005KT 2SM BR OVC003
     FM041600 19007KT 4SM BR OVC007
     FM041700 20009KT P6SM OVC015
     FM041800 20010G16KT P6SM VCSH OVC025
     FM042200 19008KT P6SM VCTS OVC040CB=



000
FTUS44 KJAN 032300
TAFJAN
TAF
KJAN 032324Z 0400/0424 16006KT 6SM BR VCSH SCT013 BKN025
     FM040200 16007KT 6SM BR VCSH OVC015
     FM040700 17005KT 4SM BR OVC007
     FM041000 18005KT 2SM BR OVC003
     FM041500 19008KT 4SM BR OVC007
     FM041700 20010G16KT P6SM OVC015
     FM042300 29009KT 4SM -RA BR OVC007=



000
FTUS44 KJAN 032200 AAA
TAFGLH
TAF AMD
KGLH 032209Z 0322/0418 17010KT 6SM BR SCT025 BKN035
     FM040000 19007KT 6SM BR OVC012
     FM041000 23010KT 4SM BR VCSH OVC007=



000
FTUS44 KJAN 032200 AAA
TAFGLH
TAF AMD
KGLH 032209Z 0322/0418 17010KT 6SM BR SCT025 BKN035
     FM040000 19007KT 6SM BR OVC012
     FM041000 23010KT 4SM BR VCSH OVC007=



000
FTUS44 KJAN 031800 AAA
TAFHBG
TAF AMD
KHBG 031812Z 0318/0418 16010KT P6SM SCT015 OVC030
     FM040100 17008KT 4SM BR OVC010
     FM040600 18003KT 1SM BR OVC003
     FM041500 17005KT 3SM BR OVC003
     FM041700 19008KT 5SM BR BKN005 OVC010=



000
FTUS44 KJAN 031800 AAA
TAFMEI
TAF AMD
KMEI 031811Z 0318/0418 18009KT P6SM BKN014 OVC035
     FM040300 19005KT 4SM BR OVC005
     FM040800 20003KT 2SM BR OVC003
     FM041600 20010KT 5SM BR BKN005 OVC010=



000
FTUS44 KJAN 031800 AAA
TAFGWO
TAF AMD
KGWO 031810Z 0318/0418 18008KT P6SM BKN030 OVC045
     FM040300 19010KT 4SM BR OVC004
     FM041000 17004KT 4SM BR VCSH BKN003 OVC010=



000
FTUS44 KJAN 031800 AAA
TAFJAN
TAF AMD
KJAN 031810Z 0318/0418 19010KT P6SM SCT015 BKN025
     FM040600 16007KT 4SM BR OVC007
     FM041000 17005KT 2SM BR OVC005
     FM041700 19010KT P6SM VCSH BKN007 OVC015=



000
FTUS44 KJAN 031700
TAFGLH
TAF
KGLH 031720Z 0318/0418 17005KT 1/4SM FG VV002
     FM031900 17006KT 1SM BR OVC003
     FM032100 17010KT 3SM BR OVC005
     FM040000 19007KT 2SM BR OVC003
     FM041000 23010KT 4SM BR VCSH OVC007=



000
FTUS44 KJAN 031700
TAFHBG
TAF
KHBG 031720Z 0318/0418 16010KT 6SM HZ SCT015 BKN020
     FM040000 17008KT 4SM BR OVC010
     FM040600 18003KT 1SM BR OVC003
     FM041500 17005KT 3SM BR OVC003
     FM041700 19008KT 5SM BR BKN005 OVC010=



000
FTUS44 KJAN 031700
TAFGWO
TAF
KGWO 031720Z 0318/0418 17007KT P6SM OVC006
     FM040300 19010KT 4SM BR OVC004
     FM041000 17004KT 4SM BR VCSH BKN003 OVC010=



000
FTUS44 KJAN 031700
TAFJAN
TAF
KJAN 031720Z 0318/0418 19010KT P6SM BKN010 OVC015
     FM040600 16007KT 4SM BR OVC007
     FM041000 17005KT 2SM BR OVC005
     FM041700 19010KT P6SM VCSH BKN007 OVC015=



000
FTUS44 KJAN 031700
TAFMEI
TAF
KMEI 031720Z 0318/0418 18008KT 2SM BR OVC005
     FM032000 19010KT P6SM OVC007
     FM040300 19005KT 4SM BR OVC005
     FM040800 20003KT 2SM BR OVC003
     FM041600 20010KT 5SM BR BKN005 OVC010=



000
FTUS44 KJAN 031700
TAFGWO
TAF
KGWO 031720Z 0318/0418 17007KT P6SM OVC006
     FM040300 19010KT 4SM BR OVC004
     FM041000 17004KT 4SM BR VCSH BKN003 OVC010=



000
FTUS44 KJAN 031700
TAFHBG
TAF
KHBG 031720Z 0318/0418 16010KT 6SM HZ SCT015 BKN020
     FM040000 17008KT 4SM BR OVC010
     FM040600 18003KT 1SM BR OVC003
     FM041500 17005KT 3SM BR OVC003
     FM041700 19008KT 5SM BR BKN005 OVC010=



000
FTUS44 KJAN 031700
TAFGLH
TAF
KGLH 031720Z 0318/0418 17005KT 1/4SM FG VV002
     FM031900 17006KT 1SM BR OVC003
     FM032100 17010KT 3SM BR OVC005
     FM040000 19007KT 2SM BR OVC003
     FM041000 23010KT 4SM BR VCSH OVC007=



000
FTUS44 KJAN 031700
TAFMEI
TAF
KMEI 031720Z 0318/0418 18008KT 2SM BR OVC005
     FM032000 19010KT P6SM OVC007
     FM040300 19005KT 4SM BR OVC005
     FM040800 20003KT 2SM BR OVC003
     FM041600 20010KT 5SM BR BKN005 OVC010=



000
FTUS44 KJAN 031700
TAFJAN
TAF
KJAN 031720Z 0318/0418 19010KT P6SM BKN010 OVC015
     FM040600 16007KT 4SM BR OVC007
     FM041000 17005KT 2SM BR OVC005
     FM041700 19010KT P6SM VCSH BKN007 OVC015=



000
FTUS44 KJAN 031600 AAC
TAFGLH
TAF AMD
KGLH 031633Z 0317/0412 17005KT 1/4SM FG VV002
     FM031800 17006KT 2SM BR OVC004
     FM032000 19010KT 4SM BR OVC007
     FM040000 17006KT 2SM BR OVC003=



000
FTUS44 KJAN 031600 AAC
TAFGLH
TAF AMD
KGLH 031633Z 0317/0412 17005KT 1/4SM FG VV002
     FM031800 17006KT 2SM BR OVC004
     FM032000 19010KT 4SM BR OVC007
     FM040000 17006KT 2SM BR OVC003=



000
FTUS44 KJAN 031400 AAB
TAFJAN
TAF AMD
KJAN 031447Z 0315/0412 17007KT 3SM BR OVC003
     FM031700 17009KT 6SM BR OVC006
     FM032000 17008KT P6SM OVC008
     FM032300 15005KT 4SM BR OVC003=



000
FTUS44 KJAN 031400 AAB
TAFJAN
TAF AMD
KJAN 031447Z 0315/0412 17007KT 3SM BR OVC003
     FM031700 17009KT 6SM BR OVC006
     FM032000 17008KT P6SM OVC008
     FM032300 15005KT 4SM BR OVC003=



000
FTUS44 KJAN 031300 AAB
TAFMEI
TAF AMD
KMEI 031353Z 0314/0412 00000KT 1/2SM FG VV003
     FM031500 18004KT 3SM BR OVC004
     FM031700 18005KT 6SM BR OVC007
     FM032300 18004KT 4SM BR OVC003=



000
FTUS44 KJAN 031300 AAB
TAFMEI
TAF AMD
KMEI 031353Z 0314/0412 00000KT 1/2SM FG VV003
     FM031500 18004KT 3SM BR OVC004
     FM031700 18005KT 6SM BR OVC007
     FM032300 18004KT 4SM BR OVC003=



000
FTUS44 KJAN 031300 AAB
TAFGLH
TAF AMD
KGLH 031352Z 0314/0412 17005KT 1/2SM FG VV003
     FM031500 17006KT 2SM BR OVC005
     FM031800 19010KT 4SM BR OVC007
     FM040000 17006KT 2SM BR OVC003=



000
FTUS44 KJAN 031300 AAB
TAFGLH
TAF AMD
KGLH 031352Z 0314/0412 17005KT 1/2SM FG VV003
     FM031500 17006KT 2SM BR OVC005
     FM031800 19010KT 4SM BR OVC007
     FM040000 17006KT 2SM BR OVC003=



000
FTUS44 KJAN 031300 AAA
TAFJAN
TAF AMD
KJAN 031340Z 0314/0412 00000KT 1/2SM FG VV004
     FM031500 17009KT 3SM BR OVC006
     FM032000 17008KT 6SM BR OVC008
     FM032300 15005KT 4SM BR OVC003=



000
FTUS44 KJAN 031300 AAA
TAFGLH
TAF AMD
KGLH 031340Z 0314/0412 00000KT 1/4SM FG VV003
     FM031500 17006KT 2SM BR OVC005
     FM031800 19010KT 4SM BR OVC007
     FM040000 17006KT 2SM BR OVC003=



000
FTUS44 KJAN 031300 AAA
TAFMEI
TAF AMD
KMEI 031319Z 0313/0412 00000KT 1/4SM FG VV003
     FM031500 18004KT 3SM BR OVC004
     FM031700 18005KT 6SM BR OVC007
     FM032300 18004KT 4SM BR OVC003=



000
FTUS44 KJAN 031300 AAC
TAFJAN
TAF AMD
KJAN 031318Z 0313/0412 00000KT 1/4SM FG VV003
     FM031500 17009KT 3SM BR OVC006
     FM032000 17008KT 6SM BR OVC008
     FM032300 15005KT 4SM BR OVC003=



000
FTUS44 KJAN 031200 AAB
TAFJAN
TAF AMD
KJAN 031245Z 0313/0412 00000KT 1/2SM FG OVC004
     FM031400 17009KT 4SM BR OVC006
     FM032000 17008KT 6SM BR OVC008
     FM032300 15005KT 4SM BR OVC003=



000
FTUS44 KJAN 031200 AAB
TAFJAN
TAF AMD
KJAN 031245Z 0313/0412 00000KT 1/2SM FG OVC004
     FM031400 17009KT 4SM BR OVC006
     FM032000 17008KT 6SM BR OVC008
     FM032300 15005KT 4SM BR OVC003=



000
FTUS44 KJAN 031200 AAA
TAFJAN
TAF AMD
KJAN 031244Z 0313/0412 00000KT 1/2SM FG OVC005
     FM031400 17009KT 4SM BR OVC006
     FM032000 17008KT 6SM BR OVC008
     FM032300 15005KT 4SM BR OVC003=



000
FTUS44 KJAN 031200 AAA
TAFJAN
TAF AMD
KJAN 031244Z 0313/0412 00000KT 1/2SM FG OVC005
     FM031400 17009KT 4SM BR OVC006
     FM032000 17008KT 6SM BR OVC008
     FM032300 15005KT 4SM BR OVC003=



000
FTUS44 KJAN 031100
TAFGWO
TAF
KGWO 031139Z 0312/0412 00000KT 2SM BR OVC004
     FM031400 17004KT 5SM BR OVC005
     FM031700 19007KT 5SM BR OVC009
     FM040000 17004KT 2SM BR OVC003=



000
FTUS44 KJAN 031100
TAFGLH
TAF
KGLH 031139Z 0312/0412 00000KT 1/2SM FG VV003
     FM031400 17006KT 2SM BR OVC005
     FM031800 19010KT 4SM BR OVC007
     FM040000 17006KT 2SM BR OVC003=



000
FTUS44 KJAN 031100
TAFHBG
TAF
KHBG 031139Z 0312/0412 00000KT 1/2SM FG VV003
     FM031500 16005KT 2SM BR OVC004
     FM031700 16008KT 4SM BR OVC006
     FM032000 17007KT 4SM BR OVC007
     FM032300 15005KT 4SM BR OVC003=



000
FTUS44 KJAN 031100
TAFGLH
TAF
KGLH 031139Z 0312/0412 00000KT 1/2SM FG VV003
     FM031400 17006KT 2SM BR OVC005
     FM031800 19010KT 4SM BR OVC007
     FM040000 17006KT 2SM BR OVC003=



000
FTUS44 KJAN 031100
TAFHBG
TAF
KHBG 031139Z 0312/0412 00000KT 1/2SM FG VV003
     FM031500 16005KT 2SM BR OVC004
     FM031700 16008KT 4SM BR OVC006
     FM032000 17007KT 4SM BR OVC007
     FM032300 15005KT 4SM BR OVC003=



000
FTUS44 KJAN 031100
TAFMEI
TAF
KMEI 031139Z 0312/0412 00000KT 1/2SM FG VV003
     FM031500 18004KT 4SM BR OVC004
     FM031700 18005KT 6SM BR OVC007
     FM032300 18004KT 4SM BR OVC003=



000
FTUS44 KJAN 031100
TAFJAN
TAF
KJAN 031139Z 0312/0412 00000KT 1SM BR OVC005
     FM031500 17009KT 4SM BR OVC006
     FM032000 17008KT 6SM BR OVC008
     FM032300 15005KT 4SM BR OVC003=



000
FTUS44 KJAN 031100
TAFMEI
TAF
KMEI 031139Z 0312/0412 00000KT 1/2SM FG VV003
     FM031500 18004KT 4SM BR OVC004
     FM031700 18005KT 6SM BR OVC007
     FM032300 18004KT 4SM BR OVC003=



000
FTUS44 KJAN 031100
TAFJAN
TAF
KJAN 031139Z 0312/0412 00000KT 1SM BR OVC005
     FM031500 17009KT 4SM BR OVC006
     FM032000 17008KT 6SM BR OVC008
     FM032300 15005KT 4SM BR OVC003=



000
FTUS44 KJAN 031100
TAFGWO
TAF
KGWO 031139Z 0312/0412 00000KT 2SM BR OVC004
     FM031400 17004KT 5SM BR OVC005
     FM031700 19007KT 5SM BR OVC009
     FM040000 17004KT 2SM BR OVC003=



000
FTUS44 KJAN 030800 AAA
TAFGLH
TAF AMD
KGLH 030818Z 0308/0406 36003KT 1/2SM FG VV002
     FM031300 17006KT 1 1/2SM BR OVC003
     FM031800 19010KT 4SM BR OVC007
     FM040000 17006KT 2SM BR OVC003=



000
FTUS44 KJAN 030800 AAA
TAFJAN
TAF AMD
KJAN 030818Z 0308/0406 VRB03KT 1/2SM FG VV003
     FM031600 17009KT 4SM BR OVC006
     FM032000 17008KT 6SM BR OVC008
     FM032300 15005KT 4SM BR OVC003=



000
FTUS44 KJAN 030800 AAA
TAFJAN
TAF AMD
KJAN 030818Z 0308/0406 VRB03KT 1/2SM FG VV003
     FM031600 17009KT 4SM BR OVC006
     FM032000 17008KT 6SM BR OVC008
     FM032300 15005KT 4SM BR OVC003=



000
FTUS44 KJAN 030800 AAA
TAFGLH
TAF AMD
KGLH 030818Z 0308/0406 36003KT 1/2SM FG VV002
     FM031300 17006KT 1 1/2SM BR OVC003
     FM031800 19010KT 4SM BR OVC007
     FM040000 17006KT 2SM BR OVC003=



000
FTUS44 KJAN 030800 AAA
TAFMEI
TAF AMD
KMEI 030816Z 0308/0406 12003KT 1/2SM FG VV003
     FM031500 18004KT 4SM BR OVC003
     FM031700 18005KT 6SM BR OVC007
     FM032300 18004KT 4SM BR OVC003=



000
FTUS44 KJAN 030800 AAA
TAFMEI
TAF AMD
KMEI 030816Z 0308/0406 12003KT 1/2SM FG VV003
     FM031500 18004KT 4SM BR OVC003
     FM031700 18005KT 6SM BR OVC007
     FM032300 18004KT 4SM BR OVC003=



000
FTUS44 KJAN 030500
TAFMEI
TAF
KMEI 030539Z 0306/0406 02004KT 4SM BR OVC003
     FM030700 12003KT 1/4SM FG OVC001
     FM031500 18004KT 4SM BR OVC003
     FM031700 18005KT 6SM BR OVC007
     FM032300 18004KT 4SM BR OVC003=



000
FTUS44 KJAN 030500
TAFGWO
TAF
KGWO 030539Z 0306/0406 08007KT 2SM BR OVC004
     FM030900 16003KT 1/2SM FG OVC002
     FM031400 17004KT 2SM BR OVC007
     FM031700 19007KT 4SM BR OVC009
     FM040000 17004KT 2SM BR OVC003=



000
FTUS44 KJAN 030500
TAFHBG
TAF
KHBG 030539Z 0306/0406 08002KT 3/4SM BR OVC002
     FM030700 09002KT 1/2SM FG OVC001
     FM030900 09002KT 1/4SM FG OVC001
     FM031500 16005KT 1SM BR OVC001
     FM031700 16008KT 2SM BR OVC003
     FM032000 17007KT 4SM BR OVC007
     FM032300 15005KT 4SM BR OVC003=



000
FTUS44 KJAN 030500
TAFGLH
TAF
KGLH 030539Z 0306/0406 36004KT 1/2SM FG OVC002
     FM030800 09004KT 1/2SM FG OVC001
     FM031000 10004KT 1/4SM FG OVC001
     FM031300 17006KT 1 1/2SM BR OVC003
     FM031800 19010KT 4SM BR OVC007
     FM040000 17006KT 2SM BR OVC003=



000
FTUS44 KJAN 030500
TAFJAN
TAF
KJAN 030539Z 0306/0406 02003KT 1/4SM -DZ FG OVC001
     FM031400 17005KT 1/2SM FG OVC003
     FM031600 17009KT 4SM BR OVC006
     FM032000 17008KT 6SM BR OVC008
     FM032300 15005KT 4SM BR OVC003=



000
FTUS44 KJAN 030500
TAFMEI
TAF
KMEI 030539Z 0306/0406 02004KT 4SM BR OVC003
     FM030700 12003KT 1/4SM FG OVC001
     FM031500 18004KT 4SM BR OVC003
     FM031700 18005KT 6SM BR OVC007
     FM032300 18004KT 4SM BR OVC003=



000
FTUS44 KJAN 030500
TAFGWO
TAF
KGWO 030539Z 0306/0406 08007KT 2SM BR OVC004
     FM030900 16003KT 1/2SM FG OVC002
     FM031400 17004KT 2SM BR OVC007
     FM031700 19007KT 4SM BR OVC009
     FM040000 17004KT 2SM BR OVC003=



000
FTUS44 KJAN 030500
TAFHBG
TAF
KHBG 030539Z 0306/0406 08002KT 3/4SM BR OVC002
     FM030700 09002KT 1/2SM FG OVC001
     FM030900 09002KT 1/4SM FG OVC001
     FM031500 16005KT 1SM BR OVC001
     FM031700 16008KT 2SM BR OVC003
     FM032000 17007KT 4SM BR OVC007
     FM032300 15005KT 4SM BR OVC003=



000
FTUS44 KJAN 030500
TAFGLH
TAF
KGLH 030539Z 0306/0406 36004KT 1/2SM FG OVC002
     FM030800 09004KT 1/2SM FG OVC001
     FM031000 10004KT 1/4SM FG OVC001
     FM031300 17006KT 1 1/2SM BR OVC003
     FM031800 19010KT 4SM BR OVC007
     FM040000 17006KT 2SM BR OVC003=



000
FTUS44 KJAN 030500
TAFJAN
TAF
KJAN 030539Z 0306/0406 02003KT 1/4SM -DZ FG OVC001
     FM031400 17005KT 1/2SM FG OVC003
     FM031600 17009KT 4SM BR OVC006
     FM032000 17008KT 6SM BR OVC008
     FM032300 15005KT 4SM BR OVC003=



000
FTUS44 KJAN 022300
TAFHBG
TAF
KHBG 022320Z 0300/0324 05003KT 3SM -RA BR OVC003
     FM030200 04003KT 1 1/2SM BR OVC002
     FM030300 10003KT 1/4SM FG OVC001
     FM031500 16005KT 1/2SM FG OVC001
     FM031600 17007KT 1 1/2SM BR OVC003
     FM031800 18008KT 4SM BR OVC015
     FM032000 18010KT P6SM OVC025=



000
FTUS44 KJAN 022300
TAFMEI
TAF
KMEI 022320Z 0300/0324 04004KT 4SM BR VCSH OVC004
     FM030400 VRB03KT 1 1/2SM BR OVC003
     FM030700 12003KT 1/2SM FG OVC001
     FM031500 18004KT 4SM BR OVC003
     FM031700 18005KT 5SM BR OVC003
     FM031900 18006KT 6SM BR OVC007
     FM032000 18008KT P6SM OVC015=



000
FTUS44 KJAN 022300
TAFJAN
TAF
KJAN 022320Z 0300/0324 01006KT 2SM -RA BR OVC002
     FM030100 03003KT 1 1/2SM BR OVC002
     FM030400 06003KT 1/2SM FG OVC001
     FM030600 VRB03KT 1/4SM FG OVC001
     FM031400 17005KT 1/2SM FG OVC003
     FM031700 17009KT 4SM BR OVC006
     FM032000 17008KT 6SM BR OVC008=



000
FTUS44 KJAN 022300
TAFGWO
TAF
KGWO 022320Z 0300/0324 02006KT 5SM -DZ BR OVC005
     FM030100 VRB04KT 4SM BR OVC003
     FM030900 16003KT 2SM BR OVC003
     FM031400 17004KT 4SM BR OVC007
     FM031700 19007KT 4SM BR OVC009=



000
FTUS44 KJAN 022300
TAFGLH
TAF
KGLH 022320Z 0300/0324 02010KT 4SM -DZ BR OVC006
     FM030200 06005KT 1 1/2SM BR OVC003
     FM030800 09004KT 1/2SM FG OVC001
     FM031000 10004KT 1/4SM FG OVC001
     FM031300 17006KT 1 1/2SM BR OVC003
     FM031800 19010KT 4SM BR OVC007=



000
FTUS44 KJAN 022300
TAFJAN
TAF
KJAN 022320Z 0300/0324 01006KT 2SM -RA BR OVC002
     FM030100 03003KT 1 1/2SM BR OVC002
     FM030400 06003KT 1/2SM FG OVC001
     FM030600 VRB03KT 1/4SM FG OVC001
     FM031400 17005KT 1/2SM FG OVC003
     FM031700 17009KT 4SM BR OVC006
     FM032000 17008KT 6SM BR OVC008=



000
FTUS44 KJAN 022300
TAFMEI
TAF
KMEI 022320Z 0300/0324 04004KT 4SM BR VCSH OVC004
     FM030400 VRB03KT 1 1/2SM BR OVC003
     FM030700 12003KT 1/2SM FG OVC001
     FM031500 18004KT 4SM BR OVC003
     FM031700 18005KT 5SM BR OVC003
     FM031900 18006KT 6SM BR OVC007
     FM032000 18008KT P6SM OVC015=



000
FTUS44 KJAN 022300
TAFHBG
TAF
KHBG 022320Z 0300/0324 05003KT 3SM -RA BR OVC003
     FM030200 04003KT 1 1/2SM BR OVC002
     FM030300 10003KT 1/4SM FG OVC001
     FM031500 16005KT 1/2SM FG OVC001
     FM031600 17007KT 1 1/2SM BR OVC003
     FM031800 18008KT 4SM BR OVC015
     FM032000 18010KT P6SM OVC025=



000
FTUS44 KJAN 022300
TAFGLH
TAF
KGLH 022320Z 0300/0324 02010KT 4SM -DZ BR OVC006
     FM030200 06005KT 1 1/2SM BR OVC003
     FM030800 09004KT 1/2SM FG OVC001
     FM031000 10004KT 1/4SM FG OVC001
     FM031300 17006KT 1 1/2SM BR OVC003
     FM031800 19010KT 4SM BR OVC007=



000
FTUS44 KJAN 022300
TAFGWO
TAF
KGWO 022320Z 0300/0324 02006KT 5SM -DZ BR OVC005
     FM030100 VRB04KT 4SM BR OVC003
     FM030900 16003KT 2SM BR OVC003
     FM031400 17004KT 4SM BR OVC007
     FM031700 19007KT 4SM BR OVC009=



000
FTUS44 KJAN 021700
TAFGLH
TAF
KGLH 021731Z 0218/0318 03012KT 2SM BR OVC006
     FM021900 03010KT 4SM BR OVC006
     FM030000 06006KT 2SM -DZ VCSH OVC003
     FM030300 10004KT 1SM -DZ VCSH OVC003
     FM031200 16006KT 3SM BR OVC007=



000
FTUS44 KJAN 021700
TAFGLH
TAF
KGLH 021731Z 0218/0318 03012KT 2SM BR OVC006
     FM021900 03010KT 4SM BR OVC006
     FM030000 06006KT 2SM -DZ VCSH OVC003
     FM030300 10004KT 1SM -DZ VCSH OVC003
     FM031200 16006KT 3SM BR OVC007=



000
FTUS44 KJAN 021700
TAFMEI
TAF
KMEI 021731Z 0218/0318 05007KT 2SM BR OVC008
     FM022100 06007KT 2SM -RA OVC003
     FM030100 VRB04KT 1SM BR OVC003
     FM030300 VRB03KT 1/2SM FG OVC001
     FM031000 14005KT 1SM BR OVC003
     FM031500 17008KT 4SM BR OVC008=



000
FTUS44 KJAN 021700
TAFJAN
TAF
KJAN 021731Z 0218/0318 01005KT 1SM BR OVC002
     FM021900 03007KT 2SM -SHRA OVC003
     FM030000 03005KT 2SM BR OVC003
     FM030300 VRB04KT 1SM BR OVC002
     FM030600 12004KT 1/2SM FG OVC001
     FM031000 15006KT 1SM BR OVC003
     FM031500 17008KT 4SM BR OVC008=



000
FTUS44 KJAN 021700
TAFGWO
TAF
KGWO 021731Z 0218/0318 05010KT 4SM BR OVC006
     FM030000 06006KT 2SM -DZ VCSH OVC003
     FM030300 10004KT 1SM -DZ VCSH OVC003
     FM031200 16006KT 3SM BR OVC007=



000
FTUS44 KJAN 021700
TAFHBG
TAF
KHBG 021731Z 0218/0318 11004KT 2SM BR OVC003
     FM022000 VRB05KT 2SM -RA BR OVC004
     FM030000 VRB04KT 1/2SM FG OVC002
     FM030200 11004KT 1/4SM FG OVC001
     FM031000 14005KT 1SM BR OVC003
     FM031500 17008KT 4SM BR OVC008=



000
FTUS44 KJAN 021700
TAFHBG
TAF
KHBG 021731Z 0218/0318 11004KT 2SM BR OVC003
     FM022000 VRB05KT 2SM -RA BR OVC004
     FM030000 VRB04KT 1/2SM FG OVC002
     FM030200 11004KT 1/4SM FG OVC001
     FM031000 14005KT 1SM BR OVC003
     FM031500 17008KT 4SM BR OVC008=



000
FTUS44 KJAN 021700
TAFJAN
TAF
KJAN 021731Z 0218/0318 01005KT 1SM BR OVC002
     FM021900 03007KT 2SM -SHRA OVC003
     FM030000 03005KT 2SM BR OVC003
     FM030300 VRB04KT 1SM BR OVC002
     FM030600 12004KT 1/2SM FG OVC001
     FM031000 15006KT 1SM BR OVC003
     FM031500 17008KT 4SM BR OVC008=



000
FTUS44 KJAN 021700
TAFMEI
TAF
KMEI 021731Z 0218/0318 05007KT 2SM BR OVC008
     FM022100 06007KT 2SM -RA OVC003
     FM030100 VRB04KT 1SM BR OVC003
     FM030300 VRB03KT 1/2SM FG OVC001
     FM031000 14005KT 1SM BR OVC003
     FM031500 17008KT 4SM BR OVC008=



000
FTUS44 KJAN 021700
TAFGWO
TAF
KGWO 021731Z 0218/0318 05010KT 4SM BR OVC006
     FM030000 06006KT 2SM -DZ VCSH OVC003
     FM030300 10004KT 1SM -DZ VCSH OVC003
     FM031200 16006KT 3SM BR OVC007=



000
FTUS44 KJAN 021500 AAB
TAFHBG
TAF AMD
KHBG 021544Z 0216/0312 10004KT 1SM BR VCSH OVC002
     FM021720 13005KT 2SM RA OVC004
     FM021900 06004KT 4SM -RA BR OVC006
     FM030400 VRB04KT 1SM BR OVC003=



000
FTUS44 KJAN 021500 AAB
TAFHBG
TAF AMD
KHBG 021544Z 0216/0312 10004KT 1SM BR VCSH OVC002
     FM021720 13005KT 2SM RA OVC004
     FM021900 06004KT 4SM -RA BR OVC006
     FM030400 VRB04KT 1SM BR OVC003=



000
FTUS44 KJAN 021400 AAA
TAFJAN
TAF AMD
KJAN 021400Z 0214/0312 36006KT 2SM -DZ BR OVC002
     FM021600 03007KT 2SM -SHRA BR OVC005
     FM030400 14005KT 1/2SM FG OVC003=



000
FTUS44 KJAN 021400 AAA
TAFJAN
TAF AMD
KJAN 021400Z 0214/0312 36006KT 2SM -DZ BR OVC002
     FM021600 03007KT 2SM -SHRA BR OVC005
     FM030400 14005KT 1/2SM FG OVC003=



000
FTUS44 KJAN 021200 AAA
TAFHBG
TAF AMD
KHBG 021238Z 0213/0312 03004KT 1/2SM DZ VV002
     FM021600 06004KT 4SM -RA BR OVC006
     FM030400 VRB04KT 1SM BR OVC003=



000
FTUS44 KJAN 021200 AAA
TAFHBG
TAF AMD
KHBG 021238Z 0213/0312 03004KT 1/2SM DZ VV002
     FM021600 06004KT 4SM -RA BR OVC006
     FM030400 VRB04KT 1SM BR OVC003=



000
FTUS44 KJAN 021100
TAFGLH
TAF
KGLH 021140Z 0212/0312 03014KT 4SM -SHRA BR OVC006
     FM030000 VRB04KT 2SM -DZ BR OVC003=



000
FTUS44 KJAN 021100
TAFHBG
TAF
KHBG 021140Z 0212/0312 03004KT 3/4SM -DZ BR VV002
     FM021600 06004KT 4SM -RA BR OVC006
     FM030400 VRB04KT 1SM BR OVC003=



000
FTUS44 KJAN 021100
TAFMEI
TAF
KMEI 021140Z 0212/0312 03004KT 4SM -DZ BR OVC002
     FM021600 06004KT 4SM -RA BR OVC006
     FM030400 VRB04KT 1SM BR OVC003=



000
FTUS44 KJAN 021100
TAFGWO
TAF
KGWO 021140Z 0212/0312 03010KT 4SM -SHRA OVC006
     FM030000 VRB04KT 2SM BR OVC003=



000
FTUS44 KJAN 021100
TAFJAN
TAF
KJAN 021140Z 0212/0312 01004KT 1/2SM -DZ FG VV002
     FM021600 02006KT 2SM -SHRA BR OVC005
     FM030400 14005KT 1/2SM FG OVC003=



000
FTUS44 KJAN 021100
TAFHBG
TAF
KHBG 021140Z 0212/0312 03004KT 3/4SM -DZ BR VV002
     FM021600 06004KT 4SM -RA BR OVC006
     FM030400 VRB04KT 1SM BR OVC003=



000
FTUS44 KJAN 021100
TAFMEI
TAF
KMEI 021140Z 0212/0312 03004KT 4SM -DZ BR OVC002
     FM021600 06004KT 4SM -RA BR OVC006
     FM030400 VRB04KT 1SM BR OVC003=



000
FTUS44 KJAN 021100
TAFJAN
TAF
KJAN 021140Z 0212/0312 01004KT 1/2SM -DZ FG VV002
     FM021600 02006KT 2SM -SHRA BR OVC005
     FM030400 14005KT 1/2SM FG OVC003=



000
FTUS44 KJAN 021100
TAFGLH
TAF
KGLH 021140Z 0212/0312 03014KT 4SM -SHRA BR OVC006
     FM030000 VRB04KT 2SM -DZ BR OVC003=



000
FTUS44 KJAN 021100
TAFGWO
TAF
KGWO 021140Z 0212/0312 03010KT 4SM -SHRA OVC006
     FM030000 VRB04KT 2SM BR OVC003=



000
FTUS44 KJAN 020800 AAA
TAFJAN
TAF AMD
KJAN 020854Z 0209/0306 VRB04KT 1/4SM FG VV002
     FM021600 36006KT 2SM BR OVC007
     FM021800 02004KT 4SM BR OVC007
     FM030000 11003KT 2SM BR OVC003=



000
FTUS44 KJAN 020800 AAA
TAFJAN
TAF AMD
KJAN 020854Z 0209/0306 VRB04KT 1/4SM FG VV002
     FM021600 36006KT 2SM BR OVC007
     FM021800 02004KT 4SM BR OVC007
     FM030000 11003KT 2SM BR OVC003=



    US Dept of Commerce
    National Oceanic and Atmospheric Administration
    National Weather Service
    1325 East West Highway
    Silver Spring, MD 20910
    Page Author: NWS Internet Services Team
Disclaimer
Information Quality
Credits
Glossary
Privacy Policy
Freedom of Information Act (FOIA)
About Us
Career Opportunities